Airfield :
LOGIN :

Register | Disclaimer

   EN    FR    IT 

 










Legend :    VFR   Marginal VFR   IFR   Intensive IFR   Very Intensive IFR
Visi :
Ceiling :
>= 8 km
>= 3000ft
5 to 8 km
1000 to 3000 ft
1500m to 5 km
500 to 1000 ft
800 to 1500m
200 to 500 ft
< 800m
< 200 ft
Symbols :   Thunderstorms  Fog  Heavy snow  Heavy precipitations  Wind > 20 kt
SIGMETs :     Misc.  Thunderstorms  Icing  Turbulence  Mountain Waves  Volcanic Ashes







- Airport Elevation : 74 ft
- IATA code : EIN


EHEH - Eindhoven

CURRENT METAR :
  • 231743Z AUTO 20014KT 5000 -RA FEW007 BKN010 OVC012 10/08 Q1018 GRN 20013KT 9999 FEW008 BKN012 OVC014 TEMPO 20014G24KT 4500 -RADZ FEW006 BKN007 OVC010

EXPIRED METARs :
  • 231725Z AUTO 20013KT 170V230 9999 FEW011/// OVC014/// 10/07 Q1018 GRN 20013KT 9999 FEW008 BKN012 OVC014 TEMPO 20014G24KT FEW006 BKN008 OVC010
  • 231713Z AUTO 20014KT 170V230 9999 OVC014 10/07 Q1018 GRN 20012KT 9999 FEW010 BKN015 OVC022 BECMG SCT010 BKN012 OVC015
  • 231700Z AUTO 19011KT 160V220 9999 BKN014 OVC016 10/07 Q1018 GRN 20012KT 9999 FEW010 BKN015 OVC022 BECMG SCT010 BKN012 OVC015
  • 231655Z AUTO 19011KT 9999 SCT014 OVC016 09/07 Q1018 GRN 20012KT 9999 FEW010 BKN015 OVC022 BECMG SCT010 BKN012 OVC015
  • 231650Z AUTO 19011KT 9999 FEW013 OVC015 09/07 Q1018 WHT 20012KT 9999 FEW010 BKN015 OVC022 BECMG SCT010 BKN012 OVC015
  • 231642Z AUTO 20012KT 170V230 9999 FEW008 SCT013 OVC015 09/08 Q1018 GRN 20012KT 9999 FEW010 BKN015 OVC022 BECMG SCT010 BKN012 OVC015
  • 231626Z AUTO 20012KT 180V240 6000 BR FEW007 BKN016 OVC020 09/08 Q1018 WHT 20012KT 9999 FEW010 BKN015 OVC022 BECMG SCT010 BKN012 OVC015
  • 231625Z AUTO 20012KT 180V240 9000 BR FEW007 SCT014 BKN017 09/07 Q1018 GRN 20012KT 9999 FEW010 BKN015 OVC022 BECMG SCT010 BKN012 OVC015
  • 231614Z AUTO 20013KT 9999 FEW010 SCT014 BKN016 09/07 Q1018 GRN 20012KT 9999 FEW010 BKN015 OVC022 BECMG SCT010 BKN012 OVC015
  • 231555Z AUTO 21016KT 180V240 9999 FEW014 SCT017 BKN022 10/07 Q1018 WHT 20012KT 9999 FEW010 BKN015 OVC022 BECMG SCT010 BKN012 OVC015
  • 231549Z AUTO 21017G27KT 180V240 9999 FEW016 SCT022 BKN029 10/07 Q1018 WHT 20012KT 9999 FEW010 BKN015 OVC022 BECMG SCT010 BKN012 OVC015
  • 231533Z AUTO 21017KT 9999 FEW019 SCT029 BKN033 10/06 Q1018 BLU 20012KT 9999 FEW010 BKN015 OVC022 BECMG SCT010 BKN012 OVC015
  • 231525Z AUTO 20013KT 170V230 9999 FEW016 OVC022 10/06 Q1018 WHT 20012KT 9999 FEW010 BKN015 OVC022 BECMG SCT010 BKN012 OVC015
  • 231455Z AUTO 19012KT 9999 OVC020 10/06 Q1018 WHT 19012KT 9999 -RADZ FEW010 BKN015 OVC022 BECMG SCT010 BKN012 OVC015

TAF TAF EHEH
Valid from the 23 at 18:00 until the 25 at 00:00 UTC


231722Z 2318/2424 21010G22KT 9999 SCT010 BKN015
BECMG 2318/2320 BKN007 OVC009
TEMPO 2322/2408 4500 RADZ SCT004 OVC006
PROB40
TEMPO 2321/2407 3000 -DZ BR BKN002 OVC004
BECMG 2412/2415 22015G32KT 9999 BKN020
BECMG 2421/2424 24011KT
TEMPO 2422/2424 4000 RA SCT007 OVC010
No reported NOTAMs for that airfield.



MET'MAP, your aeronautical weather chart ! - Copyright ORBIFLY December 2007 - Disclaimer

ORBIFLY MET'MAP TEAM :

Programming & Development : Alexandra Zaïnal
Concept & Development : Baudouin d'Aumeries
Co-Development & Prog : Marc-Olivier Méhu
Technical & hardware support : Manuel Goepfert

Contact : metmap@orbifly.com




SOURCES & CREDITS :

   NOAA